createdAt,value
2022-08-31T02:23:54.401Z,20.90
2022-08-31T02:26:27.833Z,19.10
2022-08-31T02:28:56.005Z,16.80
2022-08-31T02:31:24.673Z,15.50
2022-08-31T02:33:56.565Z,16.00
2022-08-31T02:36:25.713Z,15.90
2022-08-31T02:38:53.620Z,14.40
2022-08-31T02:41:21.972Z,14.60
2022-08-31T02:43:50.015Z,15.10
2022-08-31T02:46:18.586Z,13.30
2022-08-31T02:48:54.746Z,14.30
2022-08-31T02:51:22.876Z,14.90
2022-08-31T02:53:51.489Z,14.90
2022-08-31T02:56:19.796Z,14.50
2022-08-31T02:58:55.213Z,14.20
2022-08-31T03:01:28.973Z,13.90
2022-08-31T03:03:58.378Z,13.20
2022-08-31T03:06:26.531Z,12.20
2022-08-31T03:08:54.591Z,10.90
2022-08-31T03:11:22.692Z,11.00
2022-08-31T03:13:53.287Z,9.60
2022-08-31T03:16:24.748Z,8.70
2022-08-31T03:18:52.777Z,7.50
2022-08-31T03:21:21.060Z,7.40
2022-08-31T03:23:49.132Z,7.50
2022-08-31T03:26:18.023Z,6.40
2022-08-31T03:28:46.114Z,7.10
2022-08-31T03:31:34.497Z,6.50
2022-08-31T03:34:03.593Z,6.10
2022-08-31T03:36:31.858Z,6.20
2022-08-31T03:38:59.927Z,6.10
2022-08-31T03:41:28.364Z,6.00
2022-08-31T03:43:56.982Z,6.70
2022-08-31T03:46:25.111Z,5.60
2022-08-31T03:48:58.759Z,5.70
2022-08-31T03:51:27.997Z,5.30
2022-08-31T03:53:56.097Z,5.90
2022-08-31T03:56:24.099Z,6.20
2022-08-31T03:58:52.265Z,6.70
2022-08-31T04:01:39.508Z,8.60
2022-08-31T04:04:26.320Z,7.40
2022-08-31T04:07:21.351Z,6.20
2022-08-31T04:10:24.179Z,6.80
2022-08-31T04:13:11.675Z,7.00
2022-08-31T04:16:09.730Z,6.50
2022-08-31T04:18:47.277Z,6.30
2022-08-31T04:21:20.815Z,5.50
2022-08-31T04:23:50.645Z,6.30
2022-08-31T04:26:29.167Z,7.20
2022-08-31T04:28:57.642Z,8.80
2022-08-31T04:31:28.419Z,10.10
2022-08-31T04:33:58.471Z,9.20
2022-08-31T04:36:31.828Z,7.50
2022-08-31T04:39:06.808Z,7.30
2022-08-31T04:41:38.430Z,8.10
2022-08-31T04:44:07.775Z,7.40
2022-08-31T04:46:40.430Z,7.50
2022-08-31T04:49:12.328Z,6.80
2022-08-31T04:51:41.198Z,8.20
2022-08-31T04:54:14.425Z,8.00
2022-08-31T04:56:45.085Z,7.30
2022-08-31T04:59:17.361Z,9.00
2022-08-31T05:02:05.813Z,9.80
2022-08-31T05:04:40.910Z,10.20
2022-08-31T05:07:09.107Z,8.70
2022-08-31T05:09:37.696Z,7.80
2022-08-31T05:12:05.955Z,12.30
2022-08-31T05:14:35.889Z,11.70
2022-08-31T05:17:16.896Z,13.70
2022-08-31T05:19:45.359Z,10.00
2022-08-31T05:22:15.563Z,9.00
2022-08-31T05:24:45.526Z,10.00
2022-08-31T05:27:14.345Z,10.80
2022-08-31T05:29:42.526Z,11.20
2022-08-31T05:32:34.205Z,12.90
2022-08-31T05:35:07.035Z,13.00
2022-08-31T05:37:35.548Z,12.30
2022-08-31T05:40:04.721Z,16.80
2022-08-31T05:42:33.061Z,14.70
2022-08-31T05:45:01.832Z,16.40
2022-08-31T05:47:29.951Z,17.90
2022-08-31T05:50:00.425Z,16.50
2022-08-31T05:52:29.915Z,16.20
2022-08-31T05:54:58.279Z,17.10
2022-08-31T05:57:26.989Z,15.90
2022-08-31T05:59:56.188Z,16.20
2022-08-31T06:02:29.744Z,19.20
2022-08-31T06:05:02.247Z,16.30
2022-08-31T06:07:30.899Z,16.80
2022-08-31T06:10:04.421Z,15.00
2022-08-31T06:12:42.942Z,15.10
2022-08-31T06:15:15.747Z,15.50
2022-08-31T06:17:45.022Z,15.70
2022-08-31T06:20:17.903Z,17.20
2022-08-31T06:22:48.316Z,17.10
2022-08-31T06:25:36.899Z,16.20
2022-08-31T06:28:07.525Z,16.70
2022-08-31T06:30:54.427Z,19.40
2022-08-31T06:33:24.647Z,18.10
2022-08-31T06:36:16.754Z,17.60
2022-08-31T06:38:59.961Z,17.80
2022-08-31T06:41:42.597Z,17.30
2022-08-31T06:44:42.991Z,14.30
2022-08-31T06:47:20.711Z,14.90
2022-08-31T06:49:53.270Z,16.30
2022-08-31T06:52:22.770Z,15.70
2022-08-31T06:55:07.654Z,16.90
2022-08-31T06:57:54.299Z,18.70
2022-08-31T07:00:37.475Z,16.70
2022-08-31T07:03:35.353Z,19.10
2022-08-31T07:06:09.764Z,16.00
2022-08-31T07:08:41.416Z,16.50
2022-08-31T07:11:23.515Z,15.80
2022-08-31T07:13:55.195Z,18.40
2022-08-31T07:16:25.743Z,17.60
2022-08-31T07:18:56.468Z,16.70
2022-08-31T07:21:33.879Z,18.00
2022-08-31T07:24:06.506Z,17.70
2022-08-31T07:26:50.571Z,17.80
2022-08-31T07:29:30.586Z,17.40
2022-08-31T07:32:00.483Z,17.60
2022-08-31T07:34:31.536Z,18.00
2022-08-31T07:37:33.857Z,16.80
2022-08-31T07:40:23.765Z,15.30
2022-08-31T07:42:55.713Z,16.40
2022-08-31T07:45:25.733Z,14.70
2022-08-31T07:48:04.426Z,14.50
2022-08-31T07:50:57.726Z,14.40
2022-08-31T07:53:48.982Z,14.80
2022-08-31T07:56:43.457Z,13.30
2022-08-31T07:59:15.252Z,13.90
2022-08-31T08:01:46.537Z,12.90
2022-08-31T08:04:25.332Z,15.40
2022-08-31T08:07:26.175Z,14.00
2022-08-31T08:10:21.585Z,14.20
2022-08-31T08:13:12.771Z,15.30
2022-08-31T08:15:52.571Z,13.80
2022-08-31T08:18:33.392Z,15.00
2022-08-31T08:21:04.964Z,15.10
2022-08-31T08:23:34.175Z,15.10
2022-08-31T08:26:37.889Z,12.60
2022-08-31T08:29:19.841Z,14.70
2022-08-31T08:31:58.076Z,13.80
2022-08-31T08:34:32.883Z,13.80
2022-08-31T08:37:07.843Z,13.00
2022-08-31T08:39:36.243Z,12.00
2022-08-31T08:42:15.928Z,12.60
2022-08-31T08:44:44.853Z,11.70
2022-08-31T08:47:21.348Z,12.10
2022-08-31T08:50:05.654Z,11.90
2022-08-31T08:52:44.995Z,11.90
2022-08-31T08:55:18.505Z,12.30
2022-08-31T08:57:52.834Z,12.40
2022-08-31T09:00:28.817Z,12.20
2022-08-31T09:03:12.820Z,12.40
2022-08-31T09:06:26.471Z,11.60
2022-08-31T09:09:20.922Z,10.60
2022-08-31T09:12:01.998Z,10.20
2022-08-31T09:17:59.939Z,12.50
2022-08-31T09:20:33.973Z,11.30
2022-08-31T09:23:10.249Z,12.80
2022-08-31T09:25:52.679Z,12.90
2022-08-31T09:28:53.064Z,11.90
2022-08-31T09:31:37.687Z,10.10
2022-08-31T09:34:32.287Z,10.00
2022-08-31T09:37:12.039Z,11.30
2022-08-31T09:39:41.312Z,10.10
2022-08-31T09:42:32.045Z,9.90
2022-08-31T09:45:11.841Z,9.40
2022-08-31T09:47:56.147Z,9.90
2022-08-31T09:50:47.555Z,11.30
2022-08-31T09:53:42.381Z,12.60
2022-08-31T09:56:17.827Z,11.80
2022-08-31T09:59:02.816Z,11.50
2022-08-31T10:04:27.328Z,11.20
2022-08-31T10:07:07.003Z,11.50
2022-08-31T10:09:49.383Z,11.60
2022-08-31T10:12:51.874Z,11.40
2022-08-31T10:15:30.544Z,11.20
2022-08-31T10:18:12.168Z,10.10
2022-08-31T10:20:56.081Z,9.60
2022-08-31T10:23:54.488Z,9.60
2022-08-31T10:26:35.289Z,9.10
2022-08-31T10:29:23.189Z,9.40
2022-08-31T10:31:55.909Z,9.80
2022-08-31T10:34:51.020Z,10.90
2022-08-31T10:37:34.195Z,9.40
2022-08-31T10:40:31.999Z,10.10
2022-08-31T10:43:23.948Z,8.80
2022-08-31T10:45:53.812Z,9.30
2022-08-31T10:48:26.262Z,9.20
2022-08-31T10:51:19.569Z,10.10
2022-08-31T10:54:27.377Z,10.00
2022-08-31T10:57:10.745Z,10.80
2022-08-31T10:59:55.941Z,10.00
2022-08-31T11:02:48.658Z,9.50
2022-08-31T11:05:30.612Z,11.20
2022-08-31T11:08:19.907Z,10.90
2022-08-31T11:10:52.085Z,11.00
2022-08-31T11:13:36.366Z,10.20
2022-08-31T11:16:32.945Z,10.80
2022-08-31T11:19:17.137Z,10.30
2022-08-31T11:22:07.772Z,10.70
2022-08-31T11:24:39.242Z,10.50
2022-08-31T11:27:12.025Z,10.20
2022-08-31T11:29:46.471Z,10.60
2022-08-31T11:32:30.744Z,9.80
2022-08-31T11:35:08.481Z,10.40
2022-08-31T11:37:55.845Z,10.60
2022-08-31T11:40:42.131Z,11.00
2022-08-31T11:43:36.765Z,10.10
2022-08-31T11:46:26.891Z,10.00
2022-08-31T11:48:55.500Z,10.30
2022-08-31T11:51:42.007Z,9.20
2022-08-31T11:54:27.025Z,9.50
2022-08-31T11:56:58.922Z,8.20
2022-08-31T11:59:32.659Z,9.50
2022-08-31T12:02:19.574Z,9.80
2022-08-31T12:04:53.863Z,8.80
2022-08-31T12:07:45.418Z,9.80
2022-08-31T12:10:34.418Z,8.90
2022-08-31T12:13:26.402Z,8.40
2022-08-31T12:16:04.303Z,7.90
2022-08-31T12:18:50.962Z,8.00
2022-08-31T12:22:19.264Z,7.70
2022-08-31T12:25:17.945Z,6.80
2022-08-31T12:28:04.407Z,6.80
2022-08-31T12:30:32.510Z,7.20
2022-08-31T12:33:03.700Z,7.40
2022-08-31T12:35:33.071Z,7.30
2022-08-31T12:38:10.919Z,6.80
2022-08-31T12:40:42.478Z,7.40
2022-08-31T12:43:21.784Z,7.10
2022-08-31T12:46:12.064Z,6.70
2022-08-31T12:49:08.084Z,6.30
2022-08-31T12:51:41.153Z,6.30
2022-08-31T12:54:12.647Z,5.90
2022-08-31T12:56:58.951Z,5.50
2022-08-31T12:59:57.444Z,5.40
2022-08-31T13:02:32.970Z,5.40
2022-08-31T13:05:01.493Z,5.60
2022-08-31T13:07:36.871Z,6.00
2022-08-31T13:10:09.750Z,5.20
2022-08-31T13:12:40.779Z,4.80
2022-08-31T13:15:21.356Z,6.10
2022-08-31T13:17:50.516Z,5.10
2022-08-31T13:20:26.780Z,4.90
2022-08-31T13:23:04.543Z,4.80
2022-08-31T13:25:37.139Z,5.60
2022-08-31T13:28:12.961Z,5.20
2022-08-31T13:30:55.023Z,6.20
2022-08-31T13:33:32.325Z,6.40
2022-08-31T13:36:04.173Z,6.10
2022-08-31T13:38:42.633Z,5.20
2022-08-31T13:41:28.480Z,5.20
2022-08-31T13:44:02.775Z,5.60
2022-08-31T13:46:43.141Z,5.20
2022-08-31T13:49:37.825Z,5.10
2022-08-31T13:52:26.772Z,5.10
2022-08-31T13:55:19.029Z,5.10
2022-08-31T13:58:07.970Z,5.80
2022-08-31T14:00:43.024Z,5.10
2022-08-31T14:03:59.923Z,5.40
2022-08-31T14:06:39.422Z,5.20
2022-08-31T14:09:15.919Z,5.30
2022-08-31T14:12:06.638Z,4.80
2022-08-31T14:14:43.924Z,5.70
2022-08-31T14:17:17.827Z,5.50
2022-08-31T14:19:46.685Z,5.20
2022-08-31T14:22:28.410Z,5.60
2022-08-31T14:25:01.301Z,5.40
2022-08-31T14:27:31.038Z,5.80
2022-08-31T14:30:00.917Z,5.70
2022-08-31T14:32:31.511Z,6.10
2022-08-31T14:35:02.808Z,5.50
2022-08-31T14:37:32.428Z,5.40
2022-08-31T14:40:07.163Z,5.60
2022-08-31T14:42:44.720Z,5.20
2022-08-31T14:45:19.748Z,3.90
2022-08-31T14:47:52.443Z,4.10
2022-08-31T14:50:25.545Z,4.50
2022-08-31T14:52:55.325Z,4.60
2022-08-31T14:55:27.261Z,4.40
2022-08-31T14:58:10.144Z,4.50
2022-08-31T15:00:53.572Z,3.90
2022-08-31T15:03:24.956Z,5.60
2022-08-31T15:05:53.322Z,4.30
2022-08-31T15:08:31.084Z,5.30
2022-08-31T15:11:11.165Z,5.90
2022-08-31T15:13:39.953Z,5.60
2022-08-31T15:16:13.330Z,5.20
2022-08-31T15:18:42.856Z,5.70
2022-08-31T15:21:12.767Z,5.50
2022-08-31T15:23:41.836Z,5.20
2022-08-31T15:26:14.944Z,4.70
2022-08-31T15:28:43.071Z,5.00
2022-08-31T15:31:23.898Z,4.60
2022-08-31T15:33:55.381Z,4.80
2022-08-31T15:36:27.555Z,4.60
2022-08-31T15:39:00.032Z,4.50
2022-08-31T15:41:29.274Z,5.20
2022-08-31T15:43:57.583Z,5.20
2022-08-31T15:46:45.771Z,4.40
2022-08-31T15:49:14.117Z,5.30
2022-08-31T15:51:49.149Z,4.60
2022-08-31T15:56:52.755Z,5.00
2022-08-31T15:59:24.540Z,4.90
2022-08-31T16:01:53.144Z,4.60
2022-08-31T16:04:24.576Z,4.70
2022-08-31T16:06:53.538Z,5.20
2022-08-31T16:09:23.083Z,5.20
2022-08-31T16:11:51.844Z,5.60
2022-08-31T16:14:20.812Z,4.80
2022-08-31T16:16:50.507Z,5.20
2022-08-31T16:19:34.651Z,4.60
2022-08-31T16:22:06.105Z,5.00
2022-08-31T16:24:37.520Z,5.00
2022-08-31T16:27:08.361Z,5.20
2022-08-31T16:29:36.649Z,5.70
2022-08-31T16:32:06.936Z,5.50
2022-08-31T16:34:37.678Z,6.00
2022-08-31T16:37:07.853Z,5.90
2022-08-31T16:39:38.953Z,5.20
2022-08-31T16:42:11.139Z,3.80
2022-08-31T16:44:41.227Z,4.10
2022-08-31T16:47:10.426Z,4.00
2022-08-31T16:49:41.277Z,3.90
2022-08-31T16:52:17.347Z,4.10
2022-08-31T16:54:48.409Z,3.60
2022-08-31T16:57:19.203Z,3.50
2022-08-31T16:59:48.969Z,3.80
2022-08-31T17:02:18.496Z,3.40
2022-08-31T17:04:54.711Z,3.00
2022-08-31T17:07:24.911Z,3.50
2022-08-31T17:10:02.022Z,2.70
2022-08-31T17:12:32.514Z,3.20
2022-08-31T17:15:03.764Z,3.70
2022-08-31T17:17:33.778Z,5.50
2022-08-31T17:20:01.949Z,5.90
2022-08-31T17:22:33.702Z,4.30
2022-08-31T17:25:04.513Z,4.20
2022-08-31T17:27:39.581Z,4.30
2022-08-31T17:30:08.955Z,4.40
2022-08-31T17:32:39.416Z,4.30
2022-08-31T17:35:18.647Z,3.70
2022-08-31T17:37:49.089Z,3.80
2022-08-31T17:40:17.588Z,3.40
2022-08-31T17:42:46.451Z,4.20
2022-08-31T17:45:15.726Z,4.80
2022-08-31T17:47:44.601Z,5.00
2022-08-31T17:50:17.339Z,6.20
2022-08-31T17:52:47.504Z,6.40
2022-08-31T17:55:15.776Z,6.30
2022-08-31T17:57:44.556Z,5.70
2022-08-31T18:00:17.070Z,6.40
2022-08-31T18:02:46.032Z,6.30
2022-08-31T18:05:16.571Z,6.20
2022-08-31T18:07:46.106Z,4.50
2022-08-31T18:10:14.941Z,5.00
2022-08-31T18:12:43.415Z,4.30
2022-08-31T18:15:13.961Z,4.20
2022-08-31T18:17:43.172Z,4.70
2022-08-31T18:20:12.655Z,3.90
2022-08-31T18:22:42.199Z,3.90
2022-08-31T18:25:10.721Z,4.10
2022-08-31T18:27:39.026Z,4.20
2022-08-31T18:30:09.177Z,4.40
2022-08-31T18:32:37.335Z,3.70
2022-08-31T18:35:14.546Z,4.30
2022-08-31T18:37:42.534Z,4.60
2022-08-31T18:40:29.576Z,4.10
2022-08-31T18:43:16.531Z,4.00
2022-08-31T18:45:49.869Z,3.50
2022-08-31T18:48:26.631Z,4.00
2022-08-31T18:50:56.985Z,3.80
2022-08-31T18:53:29.514Z,3.80
2022-08-31T18:56:07.897Z,3.60
2022-08-31T18:58:37.851Z,3.90
2022-08-31T19:01:11.505Z,3.70
2022-08-31T19:03:41.290Z,4.00
2022-08-31T19:06:18.976Z,4.30
2022-08-31T19:08:48.538Z,4.00
2022-08-31T19:11:19.346Z,4.00
2022-08-31T19:13:51.270Z,5.10
2022-08-31T19:16:27.221Z,5.00
2022-08-31T19:18:56.706Z,4.70
2022-08-31T19:21:31.153Z,5.00
2022-08-31T19:24:02.208Z,5.20
2022-08-31T19:26:40.447Z,4.50
2022-08-31T19:29:11.357Z,4.90
2022-08-31T19:31:44.763Z,4.90
2022-08-31T19:34:19.598Z,5.20
2022-08-31T19:36:53.868Z,4.30
2022-08-31T19:39:28.595Z,4.70
2022-08-31T19:41:59.689Z,4.70
2022-08-31T19:44:28.275Z,4.60
2022-08-31T19:46:57.993Z,5.70
2022-08-31T19:49:31.019Z,5.50
2022-08-31T19:52:03.715Z,5.20
2022-08-31T19:54:37.641Z,5.90
2022-08-31T19:57:10.479Z,4.90
2022-08-31T19:59:38.600Z,5.60
2022-08-31T20:02:08.165Z,6.20
2022-08-31T20:04:36.752Z,6.20
2022-08-31T20:07:06.953Z,7.00
2022-08-31T20:09:37.533Z,7.30
2022-08-31T20:12:05.975Z,7.20
2022-08-31T20:14:34.865Z,7.20
2022-08-31T20:17:03.501Z,7.00
2022-08-31T20:19:36.297Z,6.60
2022-08-31T20:22:09.631Z,7.10
2022-08-31T20:24:43.829Z,8.10
2022-08-31T20:27:18.433Z,8.70
2022-08-31T20:29:48.380Z,9.80
2022-08-31T20:32:16.763Z,10.00
2022-08-31T20:34:44.857Z,9.50
2022-08-31T20:37:13.347Z,9.00
2022-08-31T20:39:42.374Z,8.70
2022-08-31T20:42:10.712Z,8.40
2022-08-31T20:44:39.660Z,8.80
2022-08-31T20:47:29.647Z,8.50
2022-08-31T20:49:59.470Z,8.50
2022-08-31T20:52:30.717Z,8.80
2022-08-31T20:55:01.550Z,8.40
2022-08-31T20:57:35.737Z,8.20
2022-08-31T21:00:06.034Z,9.00
2022-08-31T21:02:34.971Z,9.00
2022-08-31T21:05:33.975Z,9.30
2022-08-31T21:07:57.896Z,9.10
2022-08-31T21:10:36.294Z,9.00
2022-08-31T21:13:10.223Z,8.30
2022-08-31T21:15:46.477Z,8.30
2022-08-31T21:18:19.156Z,8.60
2022-08-31T21:20:47.703Z,8.50
2022-08-31T21:23:15.999Z,8.90
2022-08-31T21:25:46.037Z,9.20
2022-08-31T21:28:17.871Z,7.90
2022-08-31T21:30:50.247Z,8.60
2022-08-31T21:33:19.124Z,7.80
2022-08-31T21:35:48.022Z,7.80
2022-08-31T21:38:16.178Z,7.90
2022-08-31T21:40:51.258Z,8.20
2022-08-31T21:43:19.980Z,8.40
2022-08-31T21:45:48.401Z,7.90
2022-08-31T21:48:25.813Z,8.00
2022-08-31T21:50:54.907Z,7.50
2022-08-31T21:53:25.851Z,8.30
2022-08-31T21:55:54.493Z,8.10
2022-08-31T21:58:22.372Z,8.40
2022-08-31T22:00:51.205Z,8.80
2022-08-31T22:03:22.546Z,8.40
2022-08-31T22:05:50.681Z,7.90
2022-08-31T22:08:18.987Z,8.50
2022-08-31T22:10:49.048Z,8.40
2022-08-31T22:13:17.665Z,9.90
2022-08-31T22:15:48.036Z,9.30
2022-08-31T22:21:05.901Z,9.10
2022-08-31T22:23:35.752Z,10.20
2022-08-31T22:26:04.178Z,8.50
2022-08-31T22:28:32.122Z,8.90
2022-08-31T22:31:02.391Z,9.60
2022-08-31T22:33:30.617Z,9.10
2022-08-31T22:35:58.761Z,9.90
2022-08-31T22:38:26.793Z,8.90
2022-08-31T22:40:55.056Z,8.70
2022-08-31T22:43:23.176Z,8.60
2022-08-31T22:45:51.699Z,8.10
2022-08-31T22:48:20.085Z,8.00
2022-08-31T22:50:48.653Z,7.30
2022-08-31T22:53:16.900Z,8.00
2022-08-31T22:55:45.131Z,7.20
2022-08-31T22:58:13.882Z,7.40
2022-08-31T23:00:45.616Z,7.20
2022-08-31T23:03:14.969Z,7.90
2022-08-31T23:05:44.153Z,6.60
2022-08-31T23:08:15.994Z,6.10
2022-08-31T23:10:44.505Z,6.70
2022-08-31T23:13:12.882Z,6.90
2022-08-31T23:15:41.307Z,7.10
2022-08-31T23:18:10.703Z,6.50
2022-08-31T23:20:42.066Z,7.20
2022-08-31T23:23:10.666Z,6.80
2022-08-31T23:25:40.592Z,7.60
2022-08-31T23:28:09.567Z,7.10
2022-08-31T23:30:38.274Z,7.30
2022-08-31T23:33:07.570Z,8.00
2022-08-31T23:35:35.760Z,8.40
2022-08-31T23:38:04.399Z,7.90
2022-08-31T23:40:34.758Z,8.20
2022-08-31T23:43:04.079Z,7.00
2022-08-31T23:45:33.556Z,7.30
2022-08-31T23:48:01.752Z,7.10
2022-08-31T23:50:29.816Z,7.30
2022-08-31T23:52:57.843Z,7.80
2022-08-31T23:55:30.906Z,7.50
2022-08-31T23:57:59.492Z,7.60
